Time;durP1;ratioP1;P1;durP2;ratioP2;P2;SDS_P1;SDS_P2;PMS_P1;PMS_P2;Temp;Humidity;BMP_temperature;BMP_pressure;BME280_temperature;BME280_humidity;BME280_pressure;Samples;Min_cycle;Max_cycle;Signal;HPM_P1;HPM_P2
2022/08/25 00:01:34;;;;;;;21.60;8.45;;;;;;;24.80;100.00;99781.84;5033075;28;20549;-67
2022/08/25 00:04:03;;;;;;;22.75;8.43;;;;;;;24.69;100.00;99771.75;5014948;28;20207;-67
2022/08/25 00:06:30;;;;;;;17.05;8.52;;;;;;;24.73;100.00;99787.50;5014627;28;20203;-67
2022/08/25 00:08:58;;;;;;;21.27;9.18;;;;;;;24.66;100.00;99786.94;5033334;28;20200;-67
2022/08/25 00:11:28;;;;;;;25.63;8.93;;;;;;;24.76;100.00;99785.56;4997731;28;20200;-67
2022/08/25 00:13:59;;;;;;;21.08;8.98;;;;;;;24.72;100.00;99793.75;5032724;28;20642;-67
2022/08/25 00:16:26;;;;;;;21.70;8.80;;;;;;;24.47;100.00;99772.84;5032880;28;20204;-67
2022/08/25 00:18:57;;;;;;;23.10;8.73;;;;;;;24.64;100.00;99781.72;5033423;28;20204;-66
2022/08/25 00:21:24;;;;;;;19.33;7.95;;;;;;;24.62;100.00;99782.72;5032308;28;20238;-68
2022/08/25 00:23:51;;;;;;;17.10;8.10;;;;;;;24.53;100.00;99780.50;5032536;28;20223;-67
2022/08/25 00:26:19;;;;;;;15.15;8.85;;;;;;;24.37;100.00;99760.94;5032826;28;20573;-67
2022/08/25 00:28:46;;;;;;;20.90;8.93;;;;;;;24.49;100.00;99778.94;5032699;28;20208;-67
2022/08/25 00:31:16;;;;;;;15.48;8.38;;;;;;;24.48;100.00;99769.25;5032132;28;20196;-67
2022/08/25 00:33:44;;;;;;;20.25;9.27;;;;;;;24.34;100.00;99755.78;5031721;28;20802;-67
2022/08/25 00:36:12;;;;;;;16.45;8.57;;;;;;;24.47;100.00;99767.53;5032487;28;20641;-67
2022/08/25 00:38:39;;;;;;;20.45;8.80;;;;;;;24.41;100.00;99758.06;5032632;28;20220;-67
2022/08/25 00:41:06;;;;;;;22.30;8.93;;;;;;;23.95;100.00;99690.41;5032071;28;20204;-67
2022/08/25 00:43:43;;;;;;;24.08;8.93;;;;;;;24.42;100.00;99756.28;5032370;28;20548;-68
2022/08/25 00:46:11;;;;;;;17.30;8.55;;;;;;;24.26;100.00;99736.75;5021607;28;20200;-67
2022/08/25 00:48:43;;;;;;;16.50;8.57;;;;;;;24.48;100.00;99758.63;5032104;28;20211;-68
2022/08/25 00:51:16;;;;;;;27.85;8.93;;;;;;;24.44;100.00;99755.28;5024498;28;20566;-67
2022/08/25 00:53:44;;;;;;;15.35;8.38;;;;;;;24.41;100.00;99743.97;5031791;28;20235;-67
2022/08/25 00:56:14;;;;;;;14.95;8.85;;;;;;;24.38;100.00;99738.81;5031161;28;20211;-67
2022/08/25 00:58:42;;;;;;;25.98;8.65;;;;;;;24.37;100.00;99737.06;5031546;28;20208;-68
2022/08/25 01:01:09;;;;;;;20.08;8.93;;;;;;;24.15;100.00;99724.81;5031880;28;20211;-67
2022/08/25 01:03:36;;;;;;;21.58;8.95;;;;;;;24.35;100.00;99753.06;5013569;28;20224;-67
2022/08/25 01:06:05;;;;;;;25.23;9.05;;;;;;;24.39;100.00;99751.13;5031927;28;20223;-67
2022/08/25 01:08:33;;;;;;;22.48;8.57;;;;;;;24.32;100.00;99753.22;5032008;28;20200;-67
2022/08/25 01:11:04;;;;;;;20.08;8.32;;;;;;;24.46;100.00;99773.78;4996898;28;20283;-67
2022/08/25 01:13:35;;;;;;;22.52;8.80;;;;;;;24.25;100.00;99740.31;5032023;28;20668;-67
2022/08/25 01:16:02;;;;;;;19.33;9.02;;;;;;;24.38;100.00;99770.59;5031686;28;20206;-68
2022/08/25 01:18:41;;;;;;;19.75;9.02;;;;;;;24.43;100.00;99760.66;5032173;28;20644;-67
2022/08/25 01:21:10;;;;;;;25.42;9.93;;;;;;;24.58;100.00;99773.19;5012915;28;20607;-67
2022/08/25 01:23:37;;;;;;;23.90;8.85;;;;;;;24.35;100.00;99768.97;5032088;28;20598;-67
2022/08/25 01:26:08;;;;;;;19.60;9.05;;;;;;;24.40;100.00;99768.75;5030967;28;20652;-67
2022/08/25 01:28:36;;;;;;;19.85;9.07;;;;;;;24.23;100.00;99743.03;5031522;28;20196;-67
2022/08/25 01:31:03;;;;;;;24.08;8.70;;;;;;;24.28;100.00;99761.38;5030934;28;20204;-68
2022/08/25 01:33:30;;;;;;;25.17;8.45;;;;;;;24.24;100.00;99767.72;5031283;28;20206;-68
2022/08/25 01:35:57;;;;;;;30.60;10.18;;;;;;;24.04;100.00;99740.31;5011835;28;20262;-67
2022/08/25 01:38:25;;;;;;;23.60;9.75;;;;;;;24.31;100.00;99764.75;5031522;28;20215;-68
2022/08/25 01:40:52;;;;;;;34.38;11.80;;;;;;;24.06;100.00;99758.81;5030557;28;20207;-67
2022/08/25 01:43:30;;;;;;;36.33;12.15;;;;;;;23.82;100.00;99750.19;5030166;28;20212;-68
2022/08/25 01:45:57;;;;;;;30.15;11.25;;;;;;;23.75;100.00;99747.88;5030369;28;20204;-67
2022/08/25 01:48:25;;;;;;;21.58;9.70;;;;;;;23.96;100.00;99744.25;5030662;28;20200;-67
2022/08/25 01:50:52;;;;;;;20.90;9.68;;;;;;;24.07;100.00;99744.63;5030402;28;20233;-67
2022/08/25 01:53:22;;;;;;;23.73;9.07;;;;;;;23.86;100.00;99735.00;5030453;28;20195;-68
2022/08/25 01:56:00;;;;;;;28.08;8.13;;;;;;;23.67;100.00;99735.81;5031068;28;20223;-67
2022/08/25 01:58:29;;;;;;;27.25;7.55;;;;;;;23.78;100.00;99743.28;5012687;28;20709;-67
2022/08/25 02:00:58;;;;;;;38.70;7.63;;;;;;;23.87;100.00;99742.88;5030996;28;20200;-67
2022/08/25 02:03:26;;;;;;;23.08;7.35;;;;;;;23.90;100.00;99748.03;5031120;28;20679;-67
2022/08/25 02:05:54;;;;;;;21.27;7.10;;;;;;;23.93;100.00;99737.31;5031086;28;20200;-67
2022/08/25 02:08:22;;;;;;;27.63;7.57;;;;;;;23.90;100.00;99745.38;5031147;28;20197;-68
2022/08/25 02:10:49;;;;;;;21.00;7.20;;;;;;;23.97;100.00;99746.81;5031005;28;20207;-67
2022/08/25 02:13:19;;;;;;;27.88;7.15;;;;;;;23.99;100.00;99734.38;5030770;28;20192;-68
2022/08/25 02:15:49;;;;;;;14.52;6.22;;;;;;;24.14;100.00;99746.09;5030362;28;20771;-67
2022/08/25 02:18:16;;;;;;;16.20;6.38;;;;;;;23.92;100.00;99722.34;5030388;28;20207;-67
2022/08/25 02:20:44;;;;;;;23.45;8.00;;;;;;;23.95;100.00;99746.03;5015253;28;20228;-68
2022/08/25 02:23:11;;;;;;;21.10;7.50;;;;;;;23.99;100.00;99729.09;5030493;28;20204;-68
2022/08/25 02:25:40;;;;;;;26.55;7.15;;;;;;;24.11;100.00;99735.63;5012326;28;20192;-68
2022/08/25 02:28:09;;;;;;;21.55;7.60;;;;;;;23.74;100.00;99674.66;5030642;28;20196;-68
2022/08/25 02:30:38;;;;;;;25.00;6.55;;;;;;;23.99;100.00;99746.75;5030506;28;20202;-67
2022/08/25 02:33:06;;;;;;;26.80;6.63;;;;;;;23.89;100.00;99751.63;5031002;28;20192;-67
2022/08/25 02:35:33;;;;;;;23.20;7.63;;;;;;;23.87;100.00;99752.59;5030203;28;20376;-67
2022/08/25 02:38:00;;;;;;;19.23;7.38;;;;;;;23.79;100.00;99741.50;5030962;28;20189;-67
2022/08/25 02:40:26;;;;;;;20.30;6.97;;;;;;;23.80;100.00;99753.78;5030598;28;20204;-68
2022/08/25 02:42:54;;;;;;;18.77;8.45;;;;;;;23.80;100.00;99744.06;5030029;28;20258;-68
2022/08/25 02:45:21;;;;;;;15.65;7.05;;;;;;;23.61;100.00;99746.69;5030588;28;20208;-68
2022/08/25 02:47:49;;;;;;;27.80;7.53;;;;;;;23.49;100.00;99727.81;5035311;28;20200;-67
2022/08/25 02:50:16;;;;;;;30.42;8.75;;;;;;;23.40;100.00;99736.97;5034603;28;20200;-68
2022/08/25 02:52:43;;;;;;;26.25;9.82;;;;;;;23.36;100.00;99738.06;5034755;28;20958;-68
2022/08/25 02:55:13;;;;;;;18.60;8.10;;;;;;;23.20;100.00;99727.25;5033756;28;20219;-68
2022/08/25 02:57:40;;;;;;;21.50;7.78;;;;;;;23.34;100.00;99739.00;5033933;28;20208;-68
2022/08/25 03:00:09;;;;;;;21.33;8.50;;;;;;;23.38;100.00;99720.31;5034582;28;20661;-68
2022/08/25 03:02:36;;;;;;;23.77;8.88;;;;;;;23.34;100.00;99737.22;5016094;28;20572;-68
2022/08/25 03:05:06;;;;;;;26.05;9.15;;;;;;;23.37;100.00;99729.16;5034520;28;20266;-68
2022/08/25 03:07:33;;;;;;;16.40;8.73;;;;;;;22.91;100.00;99656.19;5016118;28;20206;-68
2022/08/25 03:10:04;;;;;;;19.20;8.70;;;;;;;23.35;100.00;99730.16;5034471;28;20203;-68
2022/08/25 03:12:31;;;;;;;19.30;8.45;;;;;;;22.94;100.00;99656.06;5034262;28;20196;-68
2022/08/25 03:14:58;;;;;;;19.58;8.77;;;;;;;23.39;100.00;99734.41;5034208;28;20628;-68
2022/08/25 03:17:24;;;;;;;20.27;8.32;;;;;;;23.49;100.00;99739.25;5034556;28;20199;-68
2022/08/25 03:19:51;;;;;;;14.30;8.00;;;;;;;23.54;100.00;99741.72;5034396;28;20211;-68
2022/08/25 03:22:20;;;;;;;23.55;8.50;;;;;;;23.65;100.00;99739.47;5034248;28;20239;-68
2022/08/25 03:24:47;;;;;;;22.02;8.80;;;;;;;23.41;100.00;99736.09;5034187;28;20290;-68
2022/08/25 03:27:13;;;;;;;21.65;9.10;;;;;;;23.51;100.00;99750.63;5033798;28;20661;-68
2022/08/25 03:29:41;;;;;;;20.33;8.68;;;;;;;23.31;100.00;99745.31;5033429;28;20219;-68
2022/08/25 03:32:08;;;;;;;19.27;7.93;;;;;;;23.33;100.00;99751.38;5033862;28;20744;-68
2022/08/25 03:34:35;;;;;;;21.00;9.85;;;;;;;23.27;100.00;99724.31;5033852;28;20224;-68
2022/08/25 03:37:02;;;;;;;25.80;8.70;;;;;;;23.27;100.00;99745.50;5033453;28;20212;-68
2022/08/25 03:39:30;;;;;;;25.30;9.90;;;;;;;23.41;100.00;99751.06;5014581;28;20192;-68
2022/08/25 03:41:57;;;;;;;21.25;9.30;;;;;;;23.35;100.00;99746.03;5033714;28;20188;-68
2022/08/25 03:44:24;;;;;;;22.83;9.68;;;;;;;23.39;100.00;99758.22;5033712;28;20200;-68
2022/08/25 03:46:52;;;;;;;19.73;8.82;;;;;;;23.38;100.00;99761.78;5033606;28;20211;-68
2022/08/25 03:49:22;;;;;;;23.25;8.57;;;;;;;23.55;100.00;99760.16;5033319;28;20204;-67
2022/08/25 03:51:51;;;;;;;19.23;8.88;;;;;;;23.61;100.00;99774.94;5033289;28;20236;-67
2022/08/25 03:54:21;;;;;;;22.08;8.35;;;;;;;23.57;100.00;99773.34;5014282;28;20262;-68
2022/08/25 03:56:49;;;;;;;23.23;8.25;;;;;;;23.33;100.00;99709.03;5033273;28;20192;-68
2022/08/25 03:59:16;;;;;;;23.73;8.35;;;;;;;23.62;100.00;99780.16;5032452;28;20192;-68
2022/08/25 04:01:45;;;;;;;19.48;8.90;;;;;;;23.56;100.00;99764.53;5032884;28;20204;-68
2022/08/25 04:04:14;;;;;;;34.15;8.57;;;;;;;23.62;100.00;99774.84;5033071;28;20197;-68
2022/08/25 04:06:42;;;;;;;27.35;8.30;;;;;;;23.79;100.00;99784.75;5033458;28;20200;-68
2022/08/25 04:09:09;;;;;;;25.58;8.77;;;;;;;24.01;100.00;99777.53;5032951;28;20204;-68
2022/08/25 04:11:36;;;;;;;23.70;8.15;;;;;;;24.09;100.00;99788.66;5047225;28;20207;-68
2022/08/25 04:14:05;;;;;;;24.08;7.32;;;;;;;24.21;100.00;99791.72;5033118;28;20656;-68
2022/08/25 04:16:34;;;;;;;37.63;8.02;;;;;;;24.40;100.00;99792.63;5033165;28;20220;-67
2022/08/25 04:19:04;;;;;;;24.95;7.30;;;;;;;24.50;100.00;99786.81;5032927;28;20203;-68
2022/08/25 04:21:31;;;;;;;27.80;7.25;;;;;;;24.56;100.00;99783.88;5032754;28;20232;-68
2022/08/25 04:23:58;;;;;;;24.80;7.95;;;;;;;24.49;100.00;99789.53;5033305;28;20204;-68
2022/08/25 04:26:29;;;;;;;23.50;7.28;;;;;;;24.52;100.00;99792.91;5033131;28;20208;-68
2022/08/25 04:28:58;;;;;;;28.35;7.72;;;;;;;24.55;100.00;99797.19;5032541;28;20197;-69
2022/08/25 04:31:28;;;;;;;32.13;7.40;;;;;;;24.70;100.00;99801.78;5031679;28;20227;-67
2022/08/25 04:33:55;;;;;;;16.95;7.53;;;;;;;24.87;100.00;99795.69;5032334;28;20192;-67
2022/08/25 04:36:22;;;;;;;24.40;7.80;;;;;;;25.01;100.00;99788.78;5013795;28;20227;-67
2022/08/25 04:38:49;;;;;;;14.73;7.22;;;;;;;25.26;100.00;99816.78;4997614;28;20200;-68
2022/08/25 04:41:18;;;;;;;21.88;8.02;;;;;;;25.18;100.00;99804.75;5013231;28;20196;-72
2022/08/25 04:43:46;;;;;;;20.27;7.25;;;;;;;25.31;100.00;99818.28;5032040;28;20204;-69
2022/08/25 04:46:15;;;;;;;23.08;7.53;;;;;;;25.25;100.00;99815.94;5031955;28;20200;-69
2022/08/25 04:48:44;;;;;;;23.45;7.82;;;;;;;25.21;100.00;99817.03;5031384;28;20203;-69
2022/08/25 04:51:13;;;;;;;29.08;8.80;;;;;;;25.09;100.00;99778.69;5030229;28;20668;-69
2022/08/25 04:53:40;;;;;;;24.30;8.15;;;;;;;25.36;100.00;99812.75;5031710;28;20286;-70
2022/08/25 04:56:09;;;;;;;25.98;8.45;;;;;;;25.37;100.00;99811.81;5031845;28;20223;-69
2022/08/25 04:58:37;;;;;;;18.38;8.82;;;;;;;25.64;100.00;99823.75;5031599;28;20200;-69
2022/08/25 05:01:04;;;;;;;27.27;8.55;;;;;;;25.75;100.00;99801.94;5028258;28;20221;-69
2022/08/25 05:03:31;;;;;;;30.13;8.35;;;;;;;25.94;100.00;99816.84;5008651;28;20207;-69
2022/08/25 05:05:59;;;;;;;28.30;8.82;;;;;;;26.28;100.00;99825.72;5032030;28;20200;-72
2022/08/25 05:08:26;;;;;;;27.90;7.80;;;;;;;26.37;100.00;99825.22;5028666;28;20207;-71
2022/08/25 05:10:55;;;;;;;20.83;7.43;;;;;;;26.45;100.00;99828.34;5032178;28;20690;-70
2022/08/25 05:13:22;;;;;;;28.80;8.13;;;;;;;26.58;100.00;99829.38;5032109;28;20192;-70
2022/08/25 05:15:53;;;;;;;25.95;8.80;;;;;;;26.84;100.00;99836.84;5025714;28;20626;-70
2022/08/25 05:18:22;;;;;;;20.88;7.45;;;;;;;27.08;100.00;99848.75;5029259;28;20204;-69
2022/08/25 05:20:49;;;;;;;25.80;8.80;;;;;;;27.45;100.00;99854.69;5031833;28;20228;-69
2022/08/25 05:23:17;;;;;;;23.05;6.72;;;;;;;27.60;100.00;99864.47;5031446;28;20204;-69
2022/08/25 05:25:44;;;;;;;27.77;7.95;;;;;;;27.42;100.00;99844.19;5031832;28;20211;-69
2022/08/25 05:28:11;;;;;;;21.20;8.23;;;;;;;27.59;100.00;99852.06;5031593;28;20199;-71
2022/08/25 05:30:39;;;;;;;18.73;7.47;;;;;;;27.56;100.00;99847.78;5031571;28;20208;-68
2022/08/25 05:33:06;;;;;;;26.80;8.60;;;;;;;27.37;100.00;99857.75;5031679;28;20228;-69
2022/08/25 05:35:34;;;;;;;31.30;8.88;;;;;;;27.64;100.00;99843.81;4996900;28;20220;-71
2022/08/25 05:38:02;;;;;;;23.15;8.73;;;;;;;27.76;100.00;99845.75;4996352;28;20232;-68
2022/08/25 05:40:31;;;;;;;53.63;24.70;;;;;;;27.57;100.00;99784.72;5031764;28;20671;-69
2022/08/25 05:42:58;;;;;;;22.75;9.13;;;;;;;28.10;100.00;99857.97;5031533;28;20571;-69
2022/08/25 05:45:25;;;;;;;23.08;7.63;;;;;;;28.12;100.00;99835.56;4996239;28;20193;-70
2022/08/25 05:47:52;;;;;;;21.80;7.53;;;;;;;27.99;100.00;99856.78;5013099;28;20197;-70
2022/08/25 05:50:19;;;;;;;28.13;6.88;;;;;;;27.86;100.00;99855.78;5031282;28;20200;-69
2022/08/25 05:52:46;;;;;;;23.83;8.68;;;;;;;27.80;100.00;99853.47;5031415;28;20338;-70
2022/08/25 05:55:14;;;;;;;23.45;7.82;;;;;;;27.58;100.00;99861.88;5031377;28;20266;-69
2022/08/25 05:57:42;;;;;;;28.15;7.22;;;;;;;27.47;100.00;99866.09;5031258;28;20291;-70
2022/08/25 06:00:10;;;;;;;37.92;7.18;;;;;;;27.68;100.00;99862.22;5006320;28;20726;-69
2022/08/25 06:02:43;;;;;;;30.95;6.82;;;;;;;27.76;100.00;99864.41;5031197;28;20207;-70
2022/08/25 06:05:12;;;;;;;26.48;6.10;;;;;;;27.34;100.00;99863.25;5029710;28;20192;-69
2022/08/25 06:07:39;;;;;;;30.10;6.28;;;;;;;27.38;100.00;99863.94;5030598;28;20212;-69
2022/08/25 06:10:10;;;;;;;30.95;5.97;;;;;;;27.66;100.00;99860.56;5030757;28;20274;-69
2022/08/25 06:12:38;;;;;;;19.27;5.75;;;;;;;27.80;96.12;99861.47;5030488;28;20216;-70
2022/08/25 06:15:07;;;;;;;25.73;6.68;;;;;;;28.04;95.17;99872.47;5037941;28;20203;-69
2022/08/25 06:17:39;;;;;;;29.02;7.55;;;;;;;27.46;99.42;99835.09;5036839;28;20219;-70
2022/08/25 06:20:08;;;;;;;25.73;6.80;;;;;;;27.99;95.89;99870.09;5030237;28;20291;-70
2022/08/25 06:22:36;;;;;;;21.88;5.82;;;;;;;28.00;89.65;99866.47;5012217;28;20962;-69
2022/08/25 06:25:04;;;;;;;24.98;5.90;;;;;;;28.03;91.98;99868.97;5030489;28;20243;-69
2022/08/25 06:27:31;;;;;;;26.88;5.78;;;;;;;28.10;84.39;99857.97;5030528;28;20740;-70
2022/08/25 06:29:58;;;;;;;21.45;5.90;;;;;;;27.91;81.62;99860.84;5030389;28;20208;-69
2022/08/25 06:32:26;;;;;;;27.90;5.55;;;;;;;27.90;81.55;99867.97;5030382;28;20207;-69
2022/08/25 06:34:53;;;;;;;23.83;5.45;;;;;;;27.98;84.89;99870.19;5030370;28;20582;-68
2022/08/25 06:37:19;;;;;;;26.83;5.85;;;;;;;27.97;79.05;99871.13;5030485;28;20223;-68
2022/08/25 06:39:46;;;;;;;23.85;5.32;;;;;;;27.80;80.23;99863.28;5030558;28;20200;-68
2022/08/25 06:42:13;;;;;;;37.85;6.68;;;;;;;28.03;80.79;99863.63;5029806;28;20211;-68
2022/08/25 06:44:40;;;;;;;34.63;6.07;;;;;;;28.10;80.64;99863.28;5030243;28;20750;-68
2022/08/25 06:47:07;;;;;;;30.80;5.32;;;;;;;27.90;71.96;99848.44;5030178;28;20208;-68
2022/08/25 06:49:35;;;;;;;26.80;5.50;;;;;;;27.84;71.85;99868.34;5030099;28;20212;-67
2022/08/25 06:52:02;;;;;;;20.63;4.55;;;;;;;27.70;66.88;99817.66;5030300;28;20582;-69
2022/08/25 06:54:29;;;;;;;25.80;4.65;;;;;;;28.11;67.62;99859.69;5030137;28;20265;-68
2022/08/25 06:56:55;;;;;;;31.67;5.57;;;;;;;27.93;67.45;99846.47;5030126;28;20231;-68
2022/08/25 06:59:22;;;;;;;18.35;4.70;;;;;;;28.10;64.44;99872.16;5029764;28;20568;-68
2022/08/25 07:01:49;;;;;;;24.30;4.97;;;;;;;28.23;63.50;99870.44;5030574;28;20216;-68
2022/08/25 07:04:16;;;;;;;22.20;4.97;;;;;;;28.18;62.65;99867.22;5027193;28;20200;-69
2022/08/25 07:06:45;;;;;;;52.90;6.00;;;;;;;28.29;63.10;99864.72;5024839;28;20217;-68
2022/08/25 07:09:13;;;;;;;45.10;5.95;;;;;;;28.46;59.95;99871.72;5029374;28;20208;-67
2022/08/25 07:11:41;;;;;;;27.35;4.72;;;;;;;28.32;59.53;99869.91;5011111;28;20208;-68
2022/08/25 07:14:10;;;;;;;29.60;5.13;;;;;;;28.41;61.83;99871.13;5029747;28;20208;-68
2022/08/25 07:16:38;;;;;;;22.67;5.10;;;;;;;28.26;58.84;99870.25;5028983;28;20297;-67
2022/08/25 07:19:05;;;;;;;23.95;5.57;;;;;;;28.25;58.29;99852.56;5028983;28;20208;-67
2022/08/25 07:21:34;;;;;;;22.17;4.50;;;;;;;28.42;56.54;99871.06;5029361;28;20223;-68
2022/08/25 07:24:06;;;;;;;23.55;4.45;;;;;;;28.28;60.16;99862.19;5029488;28;20685;-68
2022/08/25 07:26:34;;;;;;;23.15;4.43;;;;;;;28.12;57.24;99862.25;5028953;28;20200;-68
2022/08/25 07:29:03;;;;;;;25.13;3.97;;;;;;;28.15;58.13;99851.38;5029433;28;20295;-67
2022/08/25 07:31:30;;;;;;;34.30;4.97;;;;;;;28.49;57.95;99855.53;5029630;28;20200;-68
2022/08/25 07:36:41;;;;;;;32.50;4.90;;;;;;;29.14;55.09;99847.84;5033276;28;20230;-68
2022/08/25 07:39:10;;;;;;;33.03;4.93;;;;;;;29.49;53.66;99852.59;5033391;28;20212;-67
2022/08/25 07:41:39;;;;;;;30.48;4.53;;;;;;;29.73;52.77;99858.13;5033243;28;20556;-67
2022/08/25 07:44:06;;;;;;;36.85;5.07;;;;;;;29.85;52.01;99859.16;5033462;28;20274;-67
2022/08/25 07:46:33;;;;;;;24.92;4.85;;;;;;;30.02;50.68;99856.16;5033113;28;20212;-68
2022/08/25 07:49:00;;;;;;;32.65;5.18;;;;;;;30.38;47.79;99867.00;5031454;28;20235;-67
2022/08/25 07:51:27;;;;;;;24.30;4.80;;;;;;;30.41;47.89;99820.44;5014629;28;20212;-68
2022/08/25 07:53:54;;;;;;;27.80;4.80;;;;;;;30.65;47.49;99863.34;5033362;28;20674;-68
2022/08/25 07:56:22;;;;;;;20.95;4.35;;;;;;;30.32;47.67;99863.91;5028750;28;20786;-68
2022/08/25 07:58:49;;;;;;;17.73;4.20;;;;;;;30.30;47.30;99863.13;5024613;28;20204;-68
2022/08/25 08:01:17;;;;;;;30.48;4.50;;;;;;;30.66;48.61;99857.91;5022348;28;20220;-68
2022/08/25 08:03:44;;;;;;;25.40;4.68;;;;;;;30.76;46.80;99848.25;4992437;28;20591;-69
2022/08/25 08:06:13;;;;;;;26.38;4.60;;;;;;;30.88;46.42;99833.13;5020415;28;20259;-68
2022/08/25 08:08:44;;;;;;;23.73;4.15;;;;;;;31.30;44.88;99855.94;5013505;28;20209;-69
2022/08/25 08:11:17;;;;;;;23.40;4.50;;;;;;;30.84;45.40;99789.66;5013181;28;20282;-69
2022/08/25 08:13:46;;;;;;;28.75;4.75;;;;;;;31.06;45.92;99853.25;5013477;28;20258;-69
2022/08/25 08:16:15;;;;;;;20.17;4.30;;;;;;;30.81;45.03;99854.13;5013464;28;20225;-69
2022/08/25 08:18:42;;;;;;;23.27;4.80;;;;;;;30.83;45.33;99830.78;5013002;28;20699;-69
2022/08/25 08:21:12;;;;;;;16.75;3.88;;;;;;;30.85;45.71;99850.28;5012894;28;20256;-69
2022/08/25 08:23:39;;;;;;;24.55;4.45;;;;;;;30.57;45.67;99823.78;5013120;28;20239;-69
2022/08/25 08:26:06;;;;;;;20.80;3.83;;;;;;;30.62;44.61;99845.69;5013220;28;20204;-70
2022/08/25 08:28:33;;;;;;;20.08;4.40;;;;;;;30.63;45.51;99844.75;5012833;28;20645;-68
2022/08/25 08:31:01;;;;;;;26.33;4.22;;;;;;;30.40;46.28;99776.75;5027071;28;20205;-69
2022/08/25 08:33:29;;;;;;;22.75;4.88;;;;;;;31.00;45.45;99842.13;5032514;28;20208;-69
2022/08/25 08:36:01;;;;;;;22.35;4.53;;;;;;;31.26;44.99;99849.94;5032588;28;20310;-69
2022/08/25 08:38:28;;;;;;;32.70;4.03;;;;;;;31.17;43.91;99841.75;5032615;28;20211;-69
2022/08/25 08:43:56;;;;;;;26.88;5.40;;;;;;;30.87;45.10;99829.59;5016526;28;20294;-68
2022/08/25 08:46:33;;;;;;;24.60;3.83;;;;;;;30.72;45.88;99841.38;5032367;28;20219;-68
2022/08/25 08:49:06;;;;;;;29.65;5.20;;;;;;;30.58;46.24;99841.53;5032355;28;20204;-69
2022/08/25 08:51:50;;;;;;;17.77;4.13;;;;;;;30.69;46.98;99830.03;5026854;28;20209;-69
2022/08/25 08:54:23;;;;;;;24.05;5.10;;;;;;;30.63;46.74;99839.38;5031676;28;20208;-66
2022/08/25 08:57:00;;;;;;;24.80;4.82;;;;;;;30.52;46.77;99836.63;5031953;28;20224;-68
2022/08/25 08:59:37;;;;;;;23.38;4.18;;;;;;;31.00;47.07;99837.59;5031894;28;20898;-69
2022/08/25 09:02:12;;;;;;;23.80;4.45;;;;;;;31.42;46.01;99838.94;5031931;28;20215;-69
2022/08/25 09:04:43;;;;;;;20.92;4.22;;;;;;;31.82;46.08;99843.00;5031677;28;20990;-69
2022/08/25 09:07:14;;;;;;;17.52;4.32;;;;;;;31.80;46.17;99834.25;5031846;28;20207;-69
2022/08/25 09:09:43;;;;;;;21.33;4.07;;;;;;;31.48;46.05;99833.13;5031602;28;20595;-69
2022/08/25 09:12:14;;;;;;;14.00;3.88;;;;;;;31.29;47.33;99832.78;5031957;28;20643;-69
2022/08/25 09:14:57;;;;;;;11.63;3.58;;;;;;;30.55;49.61;99822.16;5031675;28;20204;-68
2022/08/25 09:17:43;;;;;;;19.08;4.07;;;;;;;30.79;48.41;99821.25;5031070;28;20594;-68
2022/08/25 09:20:33;;;;;;;18.48;4.38;;;;;;;31.13;48.41;99822.34;5031617;28;20204;-69
2022/08/25 09:23:09;;;;;;;16.45;4.07;;;;;;;31.37;47.73;99819.66;5029604;28;20315;-68
2022/08/25 09:25:45;;;;;;;14.02;3.70;;;;;;;31.10;47.85;99806.50;5031572;28;20269;-69
2022/08/25 09:28:20;;;;;;;15.10;4.00;;;;;;;31.19;47.46;99810.31;5013012;28;20199;-69
2022/08/25 09:30:54;;;;;;;28.77;4.60;;;;;;;31.15;48.71;99776.69;5031103;28;20265;-69
2022/08/25 09:33:25;;;;;;;25.85;4.07;;;;;;;31.62;48.26;99816.03;5031530;28;20195;-69
2022/08/25 09:35:53;;;;;;;17.35;4.13;;;;;;;31.21;47.88;99813.75;5031132;28;20207;-70
2022/08/25 09:38:21;;;;;;;18.13;4.13;;;;;;;31.26;48.26;99807.06;5031329;28;20235;-69
2022/08/25 09:40:50;;;;;;;19.65;3.55;;;;;;;30.67;47.68;99787.34;5031454;28;20698;-68
2022/08/25 09:43:23;;;;;;;21.45;4.55;;;;;;;30.83;48.75;99790.59;5045306;28;20211;-66
2022/08/25 09:45:58;;;;;;;27.00;4.85;;;;;;;31.16;48.34;99794.47;5012737;28;20342;-67
2022/08/25 09:48:29;;;;;;;19.20;3.70;;;;;;;30.93;48.07;99798.81;5031060;28;20203;-69
2022/08/25 09:50:59;;;;;;;14.02;4.45;;;;;;;30.69;48.71;99790.75;5043458;28;20290;-68
2022/08/25 09:53:28;;;;;;;25.73;4.65;;;;;;;30.82;47.50;99786.22;5031387;28;20247;-68
2022/08/25 09:56:03;;;;;;;25.63;4.00;;;;;;;30.82;47.09;99764.78;5030707;28;20207;-68
2022/08/25 09:58:30;;;;;;;16.13;3.83;;;;;;;31.06;46.94;99772.03;5030968;28;20213;-69
2022/08/25 10:01:16;;;;;;;18.38;4.88;;;;;;;31.16;46.95;99744.44;5012242;28;20199;-68
2022/08/25 10:03:59;;;;;;;23.75;4.97;;;;;;;31.20;47.12;99720.94;4989095;28;20693;-69
2022/08/25 10:06:31;;;;;;;19.35;4.13;;;;;;;31.45;47.10;99779.75;4988810;28;20256;-68
2022/08/25 10:09:01;;;;;;;17.80;3.70;;;;;;;31.35;45.49;99763.53;4988673;28;20210;-68
2022/08/25 10:11:41;;;;;;;20.30;4.03;;;;;;;31.37;45.98;99771.44;4972376;28;20598;-68
2022/08/25 10:14:19;;;;;;;25.58;5.07;;;;;;;31.25;45.74;99772.38;4969732;28;20216;-68
2022/08/25 10:16:47;;;;;;;18.20;4.18;;;;;;;31.29;45.43;99763.09;4969525;28;20256;-68
2022/08/25 10:19:25;;;;;;;23.45;4.53;;;;;;;31.40;44.73;99771.19;4969689;28;20202;-69
2022/08/25 10:22:09;;;;;;;17.95;3.85;;;;;;;31.45;44.25;99775.25;4969599;28;20233;-67
2022/08/25 10:24:37;;;;;;;27.08;4.32;;;;;;;31.31;44.32;99767.41;4969423;28;20686;-67
2022/08/25 10:27:18;;;;;;;20.55;4.05;;;;;;;31.40;44.36;99766.69;4969088;28;20333;-69
2022/08/25 10:30:06;;;;;;;11.30;3.92;;;;;;;31.54;44.50;99757.63;4968756;28;20296;-68
2022/08/25 10:32:45;;;;;;;18.52;4.93;;;;;;;31.68;44.44;99762.78;4968789;28;20209;-68
2022/08/25 10:35:17;;;;;;;21.48;3.85;;;;;;;31.74;43.81;99754.28;4969064;28;20198;-68
2022/08/25 10:37:53;;;;;;;18.40;4.75;;;;;;;31.91;42.82;99756.50;4968790;28;20226;-68
2022/08/25 10:40:23;;;;;;;15.77;3.72;;;;;;;32.10;41.13;99749.72;4977024;28;20208;-67
2022/08/25 10:43:05;;;;;;;29.60;4.18;;;;;;;31.50;42.12;99682.91;5010848;28;20212;-66
2022/08/25 10:45:44;;;;;;;18.42;5.32;;;;;;;31.87;40.50;99727.34;5011084;28;20639;-67
2022/08/25 10:48:25;;;;;;;16.77;4.30;;;;;;;31.55;40.66;99721.81;5011026;28;20621;-66
2022/08/25 10:51:00;;;;;;;11.18;3.75;;;;;;;31.12;41.51;99728.69;4992278;28;20901;-66
2022/08/25 10:53:34;;;;;;;16.77;3.67;;;;;;;31.37;41.45;99729.41;5010664;28;20239;-67
2022/08/25 10:56:11;;;;;;;20.55;3.67;;;;;;;31.61;40.53;99713.28;5010881;28;20205;-66
2022/08/25 10:59:10;;;;;;;17.98;3.53;;;;;;;31.75;40.09;99731.00;5010303;28;20238;-66
2022/08/25 11:01:58;;;;;;;22.20;4.53;;;;;;;31.82;40.54;99719.66;4969460;28;20206;-67
2022/08/25 11:04:32;;;;;;;12.80;4.07;;;;;;;31.98;39.98;99726.50;4892956;29;20295;-66
2022/08/25 11:07:04;;;;;;;14.75;3.95;;;;;;;31.82;39.10;99732.22;4894124;29;20200;-67
2022/08/25 11:09:38;;;;;;;14.32;3.83;;;;;;;31.98;39.98;99713.09;4896558;29;20208;-67
2022/08/25 11:12:10;;;;;;;17.65;3.85;;;;;;;32.18;40.58;99723.09;4896749;29;20215;-67
2022/08/25 11:14:41;;;;;;;11.25;4.30;;;;;;;32.24;39.24;99703.84;4896623;29;20707;-67
2022/08/25 11:17:13;;;;;;;19.15;4.25;;;;;;;32.01;38.71;99694.91;4896882;29;20228;-67
2022/08/25 11:19:44;;;;;;;13.10;3.85;;;;;;;31.97;39.21;99706.88;4896412;29;20208;-68
2022/08/25 11:22:20;;;;;;;10.45;3.72;;;;;;;32.11;38.07;99713.84;4896298;29;20675;-68
2022/08/25 11:24:59;;;;;;;29.10;4.18;;;;;;;32.12;38.39;99704.81;4850130;29;20222;-67
2022/08/25 11:27:33;;;;;;;17.17;3.72;;;;;;;32.14;38.15;99702.88;4896081;29;20201;-67
2022/08/25 11:30:07;;;;;;;20.60;3.65;;;;;;;32.11;37.24;99698.59;4849603;29;20252;-68
2022/08/25 11:32:34;;;;;;;15.02;3.90;;;;;;;32.19;37.73;99698.84;4896266;29;20196;-67
2022/08/25 11:35:03;;;;;;;9.60;3.13;;;;;;;32.34;37.52;99691.41;4896540;29;20196;-68
2022/08/25 11:37:33;;;;;;;14.80;3.42;;;;;;;32.42;37.27;99686.25;4898218;29;20235;-68
2022/08/25 11:40:18;;;;;;;27.02;4.28;;;;;;;32.43;37.87;99687.94;4953184;28;20217;-67